Time;durP1;ratioP1;P1;durP2;ratioP2;P2;SDS_P1;SDS_P2;PMS_P1;PMS_P2;Temp;Humidity;BMP_temperature;BMP_pressure;BME280_temperature;BME280_humidity;BME280_pressure;Samples;Min_cycle;Max_cycle;Signal;HPM_P1;HPM_P2
2022/11/01 00:01:20;;;;;;;30.50;13.00;;;;;;;;;;4918076;29;20130;-74
2022/11/01 00:03:46;;;;;;;28.02;12.52;;;;;;;;;;4919364;29;20048;-74
2022/11/01 00:06:12;;;;;;;32.15;12.57;;;;;;;;;;4918416;29;20399;-74
2022/11/01 00:08:39;;;;;;;35.03;13.00;;;;;;;;;;4918869;29;20036;-74
2022/11/01 00:11:06;;;;;;;24.10;12.35;;;;;;;;;;4919010;29;20048;-74
2022/11/01 00:13:33;;;;;;;28.02;12.02;;;;;;;;;;4918850;29;20440;-74
2022/11/01 00:15:59;;;;;;;27.60;13.57;;;;;;;;;;4919048;29;20048;-74
2022/11/01 00:18:25;;;;;;;27.83;13.15;;;;;;;;;;4919339;29;20043;-74
2022/11/01 00:20:52;;;;;;;25.25;12.93;;;;;;;;;;4918637;29;20380;-74
2022/11/01 00:23:18;;;;;;;27.00;12.68;;;;;;;;;;4919021;29;20047;-74
2022/11/01 00:25:44;;;;;;;27.48;13.48;;;;;;;;;;4918825;29;20083;-74
2022/11/01 00:28:10;;;;;;;28.15;13.15;;;;;;;;;;4917968;29;20044;-74
2022/11/01 00:30:37;;;;;;;24.20;13.70;;;;;;;;;;4918772;29;20499;-74
2022/11/01 00:33:03;;;;;;;30.73;14.25;;;;;;;;;;4918605;29;20127;-74
2022/11/01 00:35:31;;;;;;;26.25;12.38;;;;;;;;;;4918857;29;20044;-74
2022/11/01 00:37:58;;;;;;;29.02;13.55;;;;;;;;;;4919295;29;20128;-74
2022/11/01 00:40:24;;;;;;;23.15;13.73;;;;;;;;;;4918290;29;20056;-74
2022/11/01 00:42:50;;;;;;;27.13;13.18;;;;;;;;;;4918571;29;20107;-74
2022/11/01 00:45:16;;;;;;;29.45;13.43;;;;;;;;;;4918436;29;20040;-74
2022/11/01 00:47:42;;;;;;;26.10;13.25;;;;;;;;;;4918658;29;20048;-74
2022/11/01 00:50:09;;;;;;;25.20;13.05;;;;;;;;;;4918108;29;20419;-74
2022/11/01 00:52:35;;;;;;;27.70;14.48;;;;;;;;;;4918057;29;20127;-74
2022/11/01 00:55:01;;;;;;;23.25;13.43;;;;;;;;;;4918396;29;20068;-74
2022/11/01 00:57:27;;;;;;;27.17;12.93;;;;;;;;;;4918033;29;20051;-74
2022/11/01 00:59:53;;;;;;;33.08;15.02;;;;;;;;;;4918365;29;20143;-74
2022/11/01 01:02:19;;;;;;;27.17;13.52;;;;;;;;;;4918252;29;20040;-74
2022/11/01 01:04:47;;;;;;;28.17;13.90;;;;;;;;;;4918216;29;20205;-74
2022/11/01 01:07:13;;;;;;;27.02;13.57;;;;;;;;;;4917956;29;20070;-74
2022/11/01 01:09:39;;;;;;;28.92;13.95;;;;;;;;;;4918066;29;20055;-74
2022/11/01 01:12:05;;;;;;;28.88;13.63;;;;;;;;;;4918204;29;20040;-74
2022/11/01 01:14:31;;;;;;;32.38;14.73;;;;;;;;;;4917834;29;20506;-74
2022/11/01 01:16:57;;;;;;;27.70;13.70;;;;;;;;;;4917851;29;20047;-74
2022/11/01 01:19:24;;;;;;;24.33;14.20;;;;;;;;;;4918238;29;20056;-74
2022/11/01 01:21:50;;;;;;;27.33;12.85;;;;;;;;;;4918322;29;20048;-74
2022/11/01 01:24:16;;;;;;;27.15;14.43;;;;;;;;;;4918147;29;20048;-74
2022/11/01 01:26:42;;;;;;;34.00;14.13;;;;;;;;;;4917775;29;20435;-74
2022/11/01 01:29:08;;;;;;;25.70;13.77;;;;;;;;;;4917733;29;20040;-74
2022/11/01 01:31:34;;;;;;;34.38;14.00;;;;;;;;;;4918190;29;20587;-74
2022/11/01 01:34:00;;;;;;;32.28;13.85;;;;;;;;;;4917624;29;20040;-74
2022/11/01 01:36:27;;;;;;;22.27;13.57;;;;;;;;;;4917731;29;20048;-74
2022/11/01 01:38:53;;;;;;;24.50;13.50;;;;;;;;;;4920691;29;20044;-74
2022/11/01 01:44:23;;;;;;;22.10;11.68;;;;;;;;;;4921384;29;20074;-74
2022/11/01 01:46:49;;;;;;;26.17;12.95;;;;;;;;;;4921568;29;20046;-74
2022/11/01 01:49:15;;;;;;;20.80;9.77;;;;;;;;;;4922199;29;20048;-74
2022/11/01 01:51:41;;;;;;;20.50;8.25;;;;;;;;;;4921475;29;20499;-74
2022/11/01 01:54:07;;;;;;;18.95;9.05;;;;;;;;;;4921674;29;20044;-74
2022/11/01 01:56:36;;;;;;;17.35;8.63;;;;;;;;;;4921483;29;20048;-74
2022/11/01 01:59:04;;;;;;;14.68;7.45;;;;;;;;;;4921876;29;20048;-74
2022/11/01 02:01:32;;;;;;;10.65;5.00;;;;;;;;;;4921239;29;20076;-74
2022/11/01 02:03:58;;;;;;;10.98;4.68;;;;;;;;;;4921495;29;20048;-74
2022/11/01 02:06:25;;;;;;;4.75;2.60;;;;;;;;;;4921743;29;20523;-74
2022/11/01 02:08:53;;;;;;;3.40;1.70;;;;;;;;;;4921417;29;20126;-74
2022/11/01 02:11:20;;;;;;;2.90;1.55;;;;;;;;;;4920998;29;20048;-74
2022/11/01 02:13:46;;;;;;;2.45;1.33;;;;;;;;;;4921361;29;20105;-74
2022/11/01 02:16:15;;;;;;;2.05;1.17;;;;;;;;;;4921051;29;20123;-74
2022/11/01 02:18:52;;;;;;;1.42;0.82;;;;;;;;;;4921579;29;20052;-74
2022/11/01 02:21:18;;;;;;;1.95;0.60;;;;;;;;;;4921497;29;20043;-74
2022/11/01 02:23:50;;;;;;;1.10;0.60;;;;;;;;;;4921176;29;20043;-74
2022/11/01 02:26:32;;;;;;;3.78;1.35;;;;;;;;;;4921043;29;20046;-73
2022/11/01 02:28:58;;;;;;;3.78;0.82;;;;;;;;;;4921351;29;20052;-73
2022/11/01 02:31:39;;;;;;;3.20;1.02;;;;;;;;;;4921276;29;20047;-73
2022/11/01 02:34:18;;;;;;;4.15;1.02;;;;;;;;;;4921583;29;20048;-73
2022/11/01 02:36:46;;;;;;;7.65;1.38;;;;;;;;;;4921120;29;20044;-74
2022/11/01 02:39:20;;;;;;;3.90;0.95;;;;;;;;;;4921220;29;20051;-73
2022/11/01 02:42:02;;;;;;;5.47;1.13;;;;;;;;;;4920856;29;20543;-74
2022/11/01 02:44:32;;;;;;;3.67;1.10;;;;;;;;;;4920562;29;20441;-74
2022/11/01 02:47:00;;;;;;;2.00;1.30;;;;;;;;;;4921029;29;20051;-73
2022/11/01 02:49:28;;;;;;;4.07;1.52;;;;;;;;;;4920021;29;20036;-73
2022/11/01 02:51:55;;;;;;;3.40;1.35;;;;;;;;;;4920857;29;20051;-73
2022/11/01 02:54:22;;;;;;;7.28;1.95;;;;;;;;;;4920458;29;20040;-73
2022/11/01 02:56:50;;;;;;;4.72;1.90;;;;;;;;;;4920589;29;20051;-73
2022/11/01 02:59:19;;;;;;;2.15;1.38;;;;;;;;;;4920343;29;20076;-73
2022/11/01 03:01:49;;;;;;;6.85;1.70;;;;;;;;;;4920466;29;20139;-73
2022/11/01 03:04:16;;;;;;;6.65;1.30;;;;;;;;;;4920450;29;20050;-73
2022/11/01 03:06:46;;;;;;;5.05;1.60;;;;;;;;;;4920428;29;20048;-73
2022/11/01 03:09:13;;;;;;;1.80;1.45;;;;;;;;;;4920694;29;20131;-73
2022/11/01 03:11:57;;;;;;;2.33;1.58;;;;;;;;;;4920391;29;20495;-73
2022/11/01 03:14:24;;;;;;;8.02;1.73;;;;;;;;;;4920296;29;20043;-73
2022/11/01 03:16:55;;;;;;;3.20;1.50;;;;;;;;;;4920273;29;20043;-73
2022/11/01 03:19:39;;;;;;;2.10;1.70;;;;;;;;;;4920582;29;20096;-73
2022/11/01 03:22:08;;;;;;;1.95;1.30;;;;;;;;;;4920172;29;20051;-74
2022/11/01 03:24:45;;;;;;;9.88;1.50;;;;;;;;;;4919922;29;20044;-74
2022/11/01 03:27:31;;;;;;;2.92;1.40;;;;;;;;;;4919785;29;20051;-73
2022/11/01 03:30:15;;;;;;;2.85;1.38;;;;;;;;;;4919696;29;20051;-73
2022/11/01 03:32:41;;;;;;;2.42;1.42;;;;;;;;;;4920042;29;20122;-73
2022/11/01 03:35:10;;;;;;;1.33;1.13;;;;;;;;;;4919911;29;20036;-73
2022/11/01 03:37:38;;;;;;;5.05;1.55;;;;;;;;;;4919586;29;20411;-74
2022/11/01 03:40:04;;;;;;;4.35;1.45;;;;;;;;;;4919852;29;20076;-73
2022/11/01 03:42:31;;;;;;;2.17;1.30;;;;;;;;;;4919379;29;20531;-73
2022/11/01 03:44:59;;;;;;;1.73;1.13;;;;;;;;;;4919146;29;20055;-73
2022/11/01 03:47:25;;;;;;;2.72;1.23;;;;;;;;;;4919300;29;20040;-73
2022/11/01 03:50:27;;;;;;;2.70;1.08;;;;;;;;;;4919494;29;20040;-73
2022/11/01 03:52:53;;;;;;;1.98;1.30;;;;;;;;;;4897902;29;20528;-73
2022/11/01 03:55:20;;;;;;;3.55;1.40;;;;;;;;;;4914236;29;20046;-73
2022/11/01 03:57:50;;;;;;;3.53;1.42;;;;;;;;;;4919459;29;20047;-73
2022/11/01 04:00:25;;;;;;;4.17;1.43;;;;;;;;;;4918996;29;20080;-73
2022/11/01 04:02:53;;;;;;;5.28;1.88;;;;;;;;;;4919227;29;20044;-73
2022/11/01 04:05:21;;;;;;;5.57;1.70;;;;;;;;;;4918824;29;20044;-73
2022/11/01 04:07:48;;;;;;;5.80;1.98;;;;;;;;;;4918738;29;20377;-73
2022/11/01 04:10:14;;;;;;;2.75;1.65;;;;;;;;;;4918808;29;20048;-73
2022/11/01 04:12:43;;;;;;;7.30;1.88;;;;;;;;;;4918956;29;20036;-73
2022/11/01 04:21:10;;;;;;;6.30;2.35;;;;;;;;;;4916478;29;20051;-73
2022/11/01 04:23:36;;;;;;;9.15;2.63;;;;;;;;;;4918789;29;20048;-73
2022/11/01 04:26:03;;;;;;;3.35;1.77;;;;;;;;;;4918588;29;20036;-74
2022/11/01 04:28:29;;;;;;;5.28;1.80;;;;;;;;;;4918821;29;20052;-73
2022/11/01 04:30:56;;;;;;;7.35;2.08;;;;;;;;;;4919122;29;20047;-73
2022/11/01 04:33:22;;;;;;;5.38;1.92;;;;;;;;;;4918370;29;20526;-73
2022/11/01 04:35:48;;;;;;;8.05;1.90;;;;;;;;;;4918598;29;20047;-74
2022/11/01 04:38:14;;;;;;;9.07;2.35;;;;;;;;;;4918694;29;20563;-74
2022/11/01 04:40:41;;;;;;;3.67;1.92;;;;;;;;;;4917842;29;20134;-74
2022/11/01 04:43:07;;;;;;;9.13;2.42;;;;;;;;;;4918339;29;20059;-73
2022/11/01 04:45:33;;;;;;;5.63;2.00;;;;;;;;;;4918234;29;20511;-73
2022/11/01 04:48:00;;;;;;;9.70;1.90;;;;;;;;;;4918447;29;20175;-73
2022/11/01 04:50:26;;;;;;;6.57;2.00;;;;;;;;;;4918118;29;20044;-73
2022/11/01 04:52:52;;;;;;;7.55;2.03;;;;;;;;;;4918498;29;20051;-73
2022/11/01 04:55:18;;;;;;;8.93;2.08;;;;;;;;;;4918003;29;20075;-73
2022/11/01 04:57:45;;;;;;;8.02;2.33;;;;;;;;;;4918346;29;20514;-73
2022/11/01 05:00:11;;;;;;;8.40;2.13;;;;;;;;;;4918429;29;20084;-73
2022/11/01 05:02:38;;;;;;;7.63;2.22;;;;;;;;;;4918298;29;20052;-73
2022/11/01 05:05:05;;;;;;;13.05;3.05;;;;;;;;;;4918113;29;20040;-73
2022/11/01 05:07:31;;;;;;;6.13;2.28;;;;;;;;;;4918529;29;20118;-73
2022/11/01 05:09:57;;;;;;;10.77;2.60;;;;;;;;;;4918080;29;20072;-73
2022/11/01 05:12:23;;;;;;;11.32;2.40;;;;;;;;;;4918254;29;20070;-73
2022/11/01 05:14:49;;;;;;;3.95;1.95;;;;;;;;;;4921853;29;20044;-73
2022/11/01 05:17:16;;;;;;;7.13;2.10;;;;;;;;;;4922105;29;20051;-73
2022/11/01 05:19:42;;;;;;;8.18;1.98;;;;;;;;;;4921797;29;20446;-73
2022/11/01 05:22:08;;;;;;;6.60;1.80;;;;;;;;;;4922022;29;20123;-73
2022/11/01 05:24:34;;;;;;;7.07;1.70;;;;;;;;;;4921839;29;20044;-73
2022/11/01 05:27:00;;;;;;;5.32;2.05;;;;;;;;;;4921656;29;20044;-73
2022/11/01 05:29:27;;;;;;;4.07;1.92;;;;;;;;;;4922250;29;20534;-73
2022/11/01 05:31:53;;;;;;;7.80;2.53;;;;;;;;;;4922027;29;20476;-73
2022/11/01 05:34:19;;;;;;;6.85;2.00;;;;;;;;;;4921520;29;20039;-73
2022/11/01 05:36:45;;;;;;;5.82;1.85;;;;;;;;;;4922283;29;20480;-73
2022/11/01 05:39:11;;;;;;;7.68;1.92;;;;;;;;;;4921948;29;20092;-73
2022/11/01 05:41:39;;;;;;;4.53;1.92;;;;;;;;;;4921397;29;20087;-73
2022/11/01 05:44:05;;;;;;;7.55;2.05;;;;;;;;;;4921261;29;20439;-73
2022/11/01 05:46:31;;;;;;;5.72;2.00;;;;;;;;;;4921304;29;20127;-73
2022/11/01 05:48:57;;;;;;;4.65;1.92;;;;;;;;;;4921050;29;20055;-73
2022/11/01 05:51:23;;;;;;;4.78;1.95;;;;;;;;;;4921235;29;20108;-73
2022/11/01 05:53:50;;;;;;;7.30;2.03;;;;;;;;;;4921641;29;20066;-73
2022/11/01 05:56:17;;;;;;;7.60;2.03;;;;;;;;;;4921262;29;20076;-73
2022/11/01 05:58:43;;;;;;;8.50;1.90;;;;;;;;;;4921875;29;20142;-73
2022/11/01 06:01:09;;;;;;;4.22;1.83;;;;;;;;;;4921243;29;20044;-73
2022/11/01 06:03:35;;;;;;;5.63;1.48;;;;;;;;;;4921026;29;20083;-73
2022/11/01 06:06:02;;;;;;;7.47;3.42;;;;;;;;;;4921240;29;20047;-73
2022/11/01 06:08:28;;;;;;;4.97;1.80;;;;;;;;;;4921537;29;20040;-73
2022/11/01 06:11:01;;;;;;;5.55;1.80;;;;;;;;;;4920999;29;20103;-73
2022/11/01 06:13:27;;;;;;;6.30;1.65;;;;;;;;;;4921378;29;20048;-73
2022/11/01 06:16:00;;;;;;;5.95;2.00;;;;;;;;;;4921054;29;20044;-73
2022/11/01 06:18:26;;;;;;;5.93;1.95;;;;;;;;;;4921224;29;20131;-73
2022/11/01 06:20:52;;;;;;;6.93;2.05;;;;;;;;;;4920585;29;20471;-73
2022/11/01 06:23:18;;;;;;;7.80;2.17;;;;;;;;;;4920620;29;20404;-73
2022/11/01 06:25:44;;;;;;;4.10;2.28;;;;;;;;;;4919374;29;20492;-73
2022/11/01 06:28:10;;;;;;;8.00;2.17;;;;;;;;;;4920866;29;20044;-73
2022/11/01 06:30:40;;;;;;;5.13;1.88;;;;;;;;;;4920356;29;20131;-73
2022/11/01 06:33:08;;;;;;;5.80;2.28;;;;;;;;;;4921216;29;20032;-73
2022/11/01 06:35:34;;;;;;;4.40;2.30;;;;;;;;;;4920494;29;20044;-73
2022/11/01 06:38:05;;;;;;;6.13;2.20;;;;;;;;;;4920657;29;20180;-73
2022/11/01 06:40:32;;;;;;;5.25;2.00;;;;;;;;;;4920094;29;20052;-73
2022/11/01 06:42:59;;;;;;;6.95;1.98;;;;;;;;;;4921275;29;20063;-73
2022/11/01 06:45:25;;;;;;;6.53;2.15;;;;;;;;;;4920793;29;20111;-73
2022/11/01 06:47:52;;;;;;;11.10;2.75;;;;;;;;;;4920817;29;20055;-73
2022/11/01 06:50:18;;;;;;;5.93;2.00;;;;;;;;;;4920935;29;20104;-73
2022/11/01 06:52:44;;;;;;;5.78;2.17;;;;;;;;;;4920710;29;20075;-73
2022/11/01 06:55:10;;;;;;;5.18;1.90;;;;;;;;;;4920616;29;20040;-73
2022/11/01 06:57:36;;;;;;;8.05;1.85;;;;;;;;;;4920702;29;20040;-73
2022/11/01 07:00:03;;;;;;;11.13;2.33;;;;;;;;;;4920789;29;20518;-73
2022/11/01 07:02:29;;;;;;;8.05;2.08;;;;;;;;;;4920283;29;20067;-73
2022/11/01 07:04:55;;;;;;;11.95;2.47;;;;;;;;;;4920629;29;20040;-73
2022/11/01 07:07:21;;;;;;;7.65;1.88;;;;;;;;;;4920202;29;20072;-73
2022/11/01 07:09:48;;;;;;;7.90;2.20;;;;;;;;;;4920553;29;20055;-73
2022/11/01 07:12:14;;;;;;;6.28;2.08;;;;;;;;;;4920915;29;20051;-73
2022/11/01 07:14:40;;;;;;;7.47;2.05;;;;;;;;;;4920292;29;20042;-73
2022/11/01 07:17:06;;;;;;;8.07;2.08;;;;;;;;;;4920319;29;20127;-73
2022/11/01 07:19:32;;;;;;;8.40;2.42;;;;;;;;;;4920605;29;20056;-73
2022/11/01 07:21:58;;;;;;;6.22;1.90;;;;;;;;;;4920324;29;20111;-73
2022/11/01 07:24:24;;;;;;;6.20;1.77;;;;;;;;;;4919718;29;20111;-73
2022/11/01 07:26:50;;;;;;;6.97;1.90;;;;;;;;;;4920083;29;20048;-73
2022/11/01 07:29:16;;;;;;;4.43;1.58;;;;;;;;;;4919930;29;20040;-73
2022/11/01 07:31:42;;;;;;;6.32;1.90;;;;;;;;;;4920017;29;20055;-73
2022/11/01 07:34:09;;;;;;;3.30;1.60;;;;;;;;;;4919975;29;20511;-73
2022/11/01 07:36:35;;;;;;;4.65;1.88;;;;;;;;;;4919520;29;20036;-73
2022/11/01 07:39:01;;;;;;;5.32;1.75;;;;;;;;;;4920068;29;20054;-73
2022/11/01 07:41:27;;;;;;;4.32;1.58;;;;;;;;;;4919426;29;20098;-73
2022/11/01 07:43:54;;;;;;;7.90;1.48;;;;;;;;;;4919466;29;20040;-73
2022/11/01 07:46:20;;;;;;;9.10;2.10;;;;;;;;;;4919975;29;20040;-73
2022/11/01 07:48:46;;;;;;;6.57;1.50;;;;;;;;;;4919517;29;20036;-73
2022/11/01 07:51:12;;;;;;;7.00;1.70;;;;;;;;;;4919118;29;20134;-73
2022/11/01 07:53:38;;;;;;;7.43;1.52;;;;;;;;;;4919315;29;20071;-73
2022/11/01 07:56:06;;;;;;;7.03;1.48;;;;;;;;;;4919121;29;20095;-74
2022/11/01 07:58:32;;;;;;;5.07;1.63;;;;;;;;;;4917517;29;20036;-73
2022/11/01 08:01:00;;;;;;;5.18;1.80;;;;;;;;;;4919223;29;20056;-74
2022/11/01 08:03:26;;;;;;;6.15;1.27;;;;;;;;;;4915408;29;20526;-73
2022/11/01 08:05:52;;;;;;;4.63;1.67;;;;;;;;;;4910258;29;20040;-75
2022/11/01 08:08:18;;;;;;;7.65;1.65;;;;;;;;;;4914757;29;20036;-74
2022/11/01 08:10:45;;;;;;;7.63;1.90;;;;;;;;;;4915866;29;20162;-74
2022/11/01 08:13:15;;;;;;;5.13;1.52;;;;;;;;;;4919606;29;20044;-73
2022/11/01 08:15:42;;;;;;;4.40;1.27;;;;;;;;;;4918228;29;20044;-74
2022/11/01 08:18:08;;;;;;;3.22;1.23;;;;;;;;;;4920280;29;20091;-73
2022/11/01 08:20:34;;;;;;;6.00;1.52;;;;;;;;;;4917720;29;20051;-73
2022/11/01 08:23:00;;;;;;;6.75;1.50;;;;;;;;;;4921180;29;20047;-73
2022/11/01 08:25:26;;;;;;;3.60;1.40;;;;;;;;;;4919373;29;20159;-74
2022/11/01 08:27:53;;;;;;;9.10;2.20;;;;;;;;;;4917241;29;20032;-73
2022/11/01 08:30:20;;;;;;;7.07;1.67;;;;;;;;;;4932681;29;20126;-74
2022/11/01 08:32:46;;;;;;;6.13;1.40;;;;;;;;;;4925884;29;20098;-73
2022/11/01 08:35:12;;;;;;;8.32;1.40;;;;;;;;;;4917668;29;20044;-73
2022/11/01 08:37:47;;;;;;;9.18;1.67;;;;;;;;;;4936100;29;20042;-73
2022/11/01 08:40:13;;;;;;;3.92;1.30;;;;;;;;;;4931081;29;20112;-73
2022/11/01 08:42:39;;;;;;;5.40;1.73;;;;;;;;;;4918967;29;20060;-73
2022/11/01 08:45:05;;;;;;;8.25;2.13;;;;;;;;;;4918578;29;20525;-73
2022/11/01 08:47:31;;;;;;;3.13;1.35;;;;;;;;;;4917286;29;20138;-73
2022/11/01 08:49:57;;;;;;;4.35;1.30;;;;;;;;;;4917953;29;20048;-73
2022/11/01 08:52:24;;;;;;;3.22;1.30;;;;;;;;;;4917399;29;20044;-74
2022/11/01 08:54:50;;;;;;;5.75;1.67;;;;;;;;;;4917484;29;20080;-73
2022/11/01 08:57:16;;;;;;;6.38;1.33;;;;;;;;;;4918729;29;20032;-73
2022/11/01 08:59:42;;;;;;;4.43;1.52;;;;;;;;;;4917520;29;20048;-73
2022/11/01 09:02:11;;;;;;;5.75;1.38;;;;;;;;;;4914889;29;20051;-75
2022/11/01 09:04:37;;;;;;;4.80;1.50;;;;;;;;;;4914290;29;20526;-76
2022/11/01 09:07:03;;;;;;;4.97;1.65;;;;;;;;;;4914362;29;20099;-73
2022/11/01 09:09:30;;;;;;;3.53;1.38;;;;;;;;;;4911476;29;20049;-76
2022/11/01 09:11:56;;;;;;;4.38;1.38;;;;;;;;;;4911883;29;20044;-72
2022/11/01 09:14:23;;;;;;;6.05;1.83;;;;;;;;;;4916162;29;20127;-73
2022/11/01 09:16:50;;;;;;;4.10;1.50;;;;;;;;;;4898818;29;20335;-73
2022/11/01 09:19:16;;;;;;;4.15;1.40;;;;;;;;;;4899025;29;20049;-73
2022/11/01 09:21:43;;;;;;;5.88;1.38;;;;;;;;;;4910558;29;20055;-74
2022/11/01 09:24:10;;;;;;;3.72;1.55;;;;;;;;;;4915755;29;20044;-73
2022/11/01 09:26:36;;;;;;;4.82;1.40;;;;;;;;;;4917708;29;20048;-73
2022/11/01 09:29:02;;;;;;;6.25;1.50;;;;;;;;;;4918579;29;20048;-73
2022/11/01 09:31:29;;;;;;;6.72;1.65;;;;;;;;;;4918311;29;20054;-73
2022/11/01 09:33:55;;;;;;;3.58;1.23;;;;;;;;;;4917873;29;20055;-73
2022/11/01 09:36:22;;;;;;;6.18;1.60;;;;;;;;;;4917710;29;20040;-73
2022/11/01 09:38:48;;;;;;;6.95;1.77;;;;;;;;;;4917684;29;20044;-74
2022/11/01 09:41:25;;;;;;;3.53;0.98;;;;;;;;;;4917138;29;20072;-74
2022/11/01 09:43:52;;;;;;;4.97;1.77;;;;;;;;;;4917567;29;20040;-74
2022/11/01 09:46:20;;;;;;;6.03;1.50;;;;;;;;;;4917649;29;20040;-74
2022/11/01 09:48:47;;;;;;;4.80;1.35;;;;;;;;;;4917523;29;20126;-74
2022/11/01 09:51:19;;;;;;;5.30;1.33;;;;;;;;;;4918176;29;20048;-74
2022/11/01 09:53:46;;;;;;;6.20;1.52;;;;;;;;;;4917572;29;20403;-74
2022/11/01 09:56:35;;;;;;;8.15;2.10;;;;;;;;;;4917358;29;20043;-74
2022/11/01 09:59:07;;;;;;;5.30;1.60;;;;;;;;;;4914976;29;20048;-74
2022/11/01 10:02:01;;;;;;;5.88;1.13;;;;;;;;;;4920870;29;20048;-73
2022/11/01 10:04:36;;;;;;;5.63;1.38;;;;;;;;;;4920735;29;20053;-73
2022/11/01 10:07:07;;;;;;;4.47;1.40;;;;;;;;;;4921509;29;20559;-73
2022/11/01 10:09:33;;;;;;;;;;;;;;;;;;4921429;29;20048;-73
2022/11/01 10:12:17;;;;;;;4.53;1.58;;;;;;;;;;4920623;29;19966;-75
2022/11/01 10:14:53;;;;;;;3.05;1.40;;;;;;;;;;4920397;29;20040;-75
2022/11/01 10:17:43;;;;;;;5.97;1.63;;;;;;;;;;4911320;29;20048;-74
2022/11/01 10:20:11;;;;;;;4.43;1.30;;;;;;;;;;4919645;29;20051;-73
2022/11/01 10:22:38;;;;;;;5.75;1.70;;;;;;;;;;4919624;29;20051;-73
2022/11/01 10:25:06;;;;;;;3.20;1.27;;;;;;;;;;4918156;29;20044;-74
2022/11/01 10:27:32;;;;;;;9.13;1.48;;;;;;;;;;4918942;29;20044;-74
2022/11/01 10:30:01;;;;;;;5.35;1.30;;;;;;;;;;4918904;29;20051;-73
2022/11/01 10:32:39;;;;;;;4.68;1.13;;;;;;;;;;4918698;29;20048;-73
2022/11/01 10:35:11;;;;;;;5.22;1.52;;;;;;;;;;4900659;29;20037;-74
2022/11/01 10:37:37;;;;;;;8.27;1.42;;;;;;;;;;4910734;29;20108;-73
2022/11/01 10:40:09;;;;;;;4.13;1.20;;;;;;;;;;4919835;29;20044;-73
2022/11/01 10:42:36;;;;;;;4.50;1.10;;;;;;;;;;4919085;29;20106;-74
2022/11/01 10:45:16;;;;;;;2.90;1.52;;;;;;;;;;4918756;29;20503;-73
2022/11/01 10:47:42;;;;;;;5.80;1.38;;;;;;;;;;4917945;29;20100;-75
2022/11/01 10:50:11;;;;;;;2.90;1.23;;;;;;;;;;4919367;29;20071;-74
2022/11/01 10:52:45;;;;;;;7.85;1.40;;;;;;;;;;4918286;29;20161;-74
2022/11/01 10:55:17;;;;;;;4.97;1.65;;;;;;;;;;4919545;29;20036;-74
2022/11/01 10:57:48;;;;;;;5.65;1.38;;;;;;;;;;4918747;29;20439;-75
2022/11/01 11:00:16;;;;;;;4.03;1.20;;;;;;;;;;4919257;29;20508;-74
2022/11/01 11:02:44;;;;;;;4.82;1.30;;;;;;;;;;4919344;29;20054;-75
2022/11/01 11:05:13;;;;;;;5.80;1.42;;;;;;;;;;4917918;29;20052;-75
2022/11/01 11:07:40;;;;;;;6.50;1.58;;;;;;;;;;4919317;29;20051;-75
2022/11/01 11:10:15;;;;;;;8.45;1.30;;;;;;;;;;4918763;29;20114;-75
2022/11/01 11:12:41;;;;;;;4.18;1.40;;;;;;;;;;4916925;29;20052;-73
2022/11/01 11:15:15;;;;;;;9.73;2.03;;;;;;;;;;4915797;29;20032;-73
2022/11/01 11:17:43;;;;;;;4.45;1.30;;;;;;;;;;4919813;29;20051;-72
2022/11/01 11:20:10;;;;;;;4.75;1.20;;;;;;;;;;4915377;29;20047;-73
2022/11/01 11:22:38;;;;;;;5.35;1.30;;;;;;;;;;4915852;29;20096;-74
2022/11/01 11:25:05;;;;;;;5.20;1.40;;;;;;;;;;4916643;29;20575;-73
2022/11/01 11:27:33;;;;;;;5.60;1.65;;;;;;;;;;4916397;29;20538;-74
2022/11/01 11:30:04;;;;;;;4.90;1.73;;;;;;;;;;4911602;29;20047;-73
2022/11/01 11:32:34;;;;;;;4.78;1.63;;;;;;;;;;4918114;29;20491;-74
2022/11/01 11:35:02;;;;;;;6.30;2.67;;;;;;;;;;4909447;29;20064;-74
2022/11/01 11:37:29;;;;;;;4.45;1.50;;;;;;;;;;4916673;29;20047;-74
2022/11/01 11:40:18;;;;;;;5.78;1.10;;;;;;;;;;4918125;29;20606;-73
2022/11/01 11:42:47;;;;;;;5.32;1.45;;;;;;;;;;4898721;29;20088;-74
2022/11/01 11:45:22;;;;;;;4.28;1.25;;;;;;;;;;4917833;29;20044;-74
2022/11/01 11:47:49;;;;;;;3.50;1.30;;;;;;;;;;4916143;29;20048;-74
2022/11/01 11:50:22;;;;;;;5.20;1.27;;;;;;;;;;4913798;29;20071;-74
2022/11/01 11:52:50;;;;;;;5.03;1.45;;;;;;;;;;4917612;29;20523;-74
2022/11/01 11:55:34;;;;;;;5.18;1.17;;;;;;;;;;4917268;29;20043;-74
2022/11/01 11:58:01;;;;;;;6.20;1.30;;;;;;;;;;4915588;29;20051;-74
2022/11/01 12:00:28;;;;;;;6.28;1.67;;;;;;;;;;4917462;29;20060;-74
2022/11/01 12:02:55;;;;;;;5.40;1.60;;;;;;;;;;4918138;29;20508;-74
2022/11/01 12:05:27;;;;;;;6.63;1.70;;;;;;;;;;4917188;29;20040;-74
2022/11/01 12:07:54;;;;;;;5.43;1.67;;;;;;;;;;4916750;29;20052;-74
2022/11/01 12:10:29;;;;;;;3.13;1.10;;;;;;;;;;4916951;29;20058;-74
2022/11/01 12:12:56;;;;;;;4.03;1.05;;;;;;;;;;4917597;29;20051;-75
2022/11/01 12:15:32;;;;;;;5.57;1.33;;;;;;;;;;4916951;29;20071;-75
2022/11/01 12:18:17;;;;;;;3.55;1.40;;;;;;;;;;4910760;29;20040;-74
2022/11/01 12:20:47;;;;;;;6.55;1.48;;;;;;;;;;4915908;29;20520;-75
2022/11/01 12:23:18;;;;;;;10.05;1.40;;;;;;;;;;4916396;29;20040;-74
2022/11/01 12:25:45;;;;;;;4.88;1.30;;;;;;;;;;4898370;29;20500;-75
2022/11/01 12:28:31;;;;;;;9.98;1.65;;;;;;;;;;4917156;29;20040;-74
2022/11/01 12:31:00;;;;;;;3.22;1.50;;;;;;;;;;4916473;29;20514;-74
2022/11/01 12:33:30;;;;;;;5.40;1.30;;;;;;;;;;4915966;29;20074;-75
2022/11/01 12:35:57;;;;;;;4.82;1.60;;;;;;;;;;4917533;29;20056;-74
2022/11/01 12:38:31;;;;;;;4.32;1.20;;;;;;;;;;4916734;29;20048;-75
2022/11/01 12:40:59;;;;;;;6.10;2.03;;;;;;;;;;4917593;29;20185;-75
2022/11/01 12:43:31;;;;;;;6.60;1.40;;;;;;;;;;4917843;29;20036;-74
2022/11/01 12:46:23;;;;;;;3.55;1.30;;;;;;;;;;4916772;29;20056;-74
2022/11/01 12:48:58;;;;;;;3.92;1.27;;;;;;;;;;4907165;29;20048;-75
2022/11/01 12:51:29;;;;;;;6.20;1.90;;;;;;;;;;4917807;29;20131;-75
2022/11/01 12:54:04;;;;;;;5.35;1.42;;;;;;;;;;4916450;29;20600;-75
2022/11/01 12:56:31;;;;;;;6.53;1.35;;;;;;;;;;4916834;29;20036;-74
2022/11/01 12:58:57;;;;;;;7.88;1.55;;;;;;;;;;4917415;29;20431;-73
2022/11/01 13:01:29;;;;;;;6.55;1.88;;;;;;;;;;4916215;29;20449;-75
2022/11/01 13:04:01;;;;;;;5.03;1.55;;;;;;;;;;4916966;29;20130;-74
2022/11/01 13:06:39;;;;;;;5.85;1.63;;;;;;;;;;4906559;29;20040;-74
2022/11/01 13:09:24;;;;;;;4.28;1.45;;;;;;;;;;4916565;29;20111;-74
2022/11/01 13:12:01;;;;;;;6.95;1.60;;;;;;;;;;4908065;29;20047;-74
2022/11/01 13:14:29;;;;;;;5.78;1.70;;;;;;;;;;4917090;29;20048;-74
2022/11/01 13:17:10;;;;;;;8.65;1.73;;;;;;;;;;4916775;29;20043;-75
2022/11/01 13:19:43;;;;;;;9.55;1.83;;;;;;;;;;4916822;29;20048;-74
2022/11/01 13:22:15;;;;;;;5.88;1.40;;;;;;;;;;4916548;29;20047;-75
2022/11/01 13:24:47;;;;;;;5.60;1.23;;;;;;;;;;4913227;29;20052;-74
2022/11/01 13:27:16;;;;;;;6.50;1.40;;;;;;;;;;4917714;29;20048;-74
2022/11/01 13:30:01;;;;;;;10.98;1.73;;;;;;;;;;4916436;29;20040;-74
2022/11/01 13:32:30;;;;;;;7.45;1.58;;;;;;;;;;4915852;29;20052;-74
2022/11/01 13:35:12;;;;;;;7.57;1.60;;;;;;;;;;4918730;29;20040;-74
2022/11/01 13:37:38;;;;;;;6.68;1.88;;;;;;;;;;4920809;29;20055;-76
2022/11/01 13:40:18;;;;;;;6.80;1.48;;;;;;;;;;4920321;29;20055;-74
2022/11/01 13:42:51;;;;;;;5.57;1.67;;;;;;;;;;4920489;29;20096;-74
2022/11/01 13:45:32;;;;;;;5.85;1.55;;;;;;;;;;4921362;29;20127;-74
2022/11/01 13:48:10;;;;;;;5.60;1.50;;;;;;;;;;4919353;29;20409;-75
2022/11/01 13:50:55;;;;;;;6.80;1.60;;;;;;;;;;4920799;29;20058;-74
2022/11/01 13:53:31;;;;;;;5.32;1.70;;;;;;;;;;4903968;29;20151;-74
2022/11/01 13:56:10;;;;;;;5.50;1.50;;;;;;;;;;4920739;29;20051;-75
2022/11/01 13:58:36;;;;;;;4.90;1.30;;;;;;;;;;4919933;29;20071;-74
2022/11/01 14:01:35;;;;;;;5.95;1.83;;;;;;;;;;4919835;29;20526;-75
2022/11/01 14:04:13;;;;;;;6.35;1.42;;;;;;;;;;4898871;29;20048;-75
2022/11/01 14:06:40;;;;;;;6.75;1.75;;;;;;;;;;4919703;29;20548;-74
2022/11/01 14:09:24;;;;;;;5.47;1.80;;;;;;;;;;4920290;29;20083;-75
2022/11/01 14:11:55;;;;;;;6.93;1.50;;;;;;;;;;4901969;29;20080;-74
2022/11/01 14:14:30;;;;;;;5.68;1.40;;;;;;;;;;4918760;29;20548;-76
2022/11/01 14:17:15;;;;;;;7.93;1.70;;;;;;;;;;4919536;29;20067;-75
2022/11/01 14:19:42;;;;;;;7.55;2.20;;;;;;;;;;4920056;29;20079;-76
2022/11/01 14:22:23;;;;;;;5.75;1.77;;;;;;;;;;4919560;29;20131;-75
2022/11/01 14:24:57;;;;;;;3.83;1.42;;;;;;;;;;4910747;29;20046;-75
2022/11/01 14:27:29;;;;;;;3.15;1.48;;;;;;;;;;4918342;29;20044;-75
2022/11/01 14:29:55;;;;;;;5.40;1.88;;;;;;;;;;4919547;29;20100;-75
2022/11/01 14:32:24;;;;;;;5.43;2.13;;;;;;;;;;4918701;29;20571;-75
2022/11/01 14:34:58;;;;;;;9.40;2.42;;;;;;;;;;4919333;29;20098;-75
2022/11/01 14:37:26;;;;;;;9.82;2.70;;;;;;;;;;4919423;29;20044;-75
2022/11/01 14:39:59;;;;;;;7.18;1.63;;;;;;;;;;4920006;29;20103;-74
2022/11/01 14:42:29;;;;;;;5.82;1.70;;;;;;;;;;4920104;29;20062;-74
2022/11/01 14:44:58;;;;;;;7.75;2.67;;;;;;;;;;4918821;29;20044;-73
2022/11/01 14:47:34;;;;;;;7.53;2.47;;;;;;;;;;4918572;29;20040;-74
2022/11/01 14:50:02;;;;;;;6.10;1.83;;;;;;;;;;4919641;29;20048;-75
2022/11/01 14:52:33;;;;;;;9.52;1.95;;;;;;;;;;4918918;29;20523;-74
2022/11/01 14:55:03;;;;;;;9.40;1.75;;;;;;;;;;4919353;29;20040;-74
2022/11/01 14:57:31;;;;;;;7.82;1.63;;;;;;;;;;4919002;29;20052;-74
2022/11/01 14:59:58;;;;;;;8.85;2.22;;;;;;;;;;4918793;29;20048;-74
2022/11/01 15:02:25;;;;;;;6.32;1.70;;;;;;;;;;4917569;29;20043;-74